Time;durP1;ratioP1;P1;durP2;ratioP2;P2;SDS_P1;SDS_P2;PMS_P1;PMS_P2;Temp;Humidity;BMP_temperature;BMP_pressure;BME280_temperature;BME280_humidity;BME280_pressure;Samples;Min_cycle;Max_cycle;Signal;HPM_P1;HPM_P2
2022/09/23 00:02:41;;;;;;;;;;;;;;;18.96;60.51;101536.53;2271006;75;50056;-79
2022/09/23 00:05:43;;;;;;;;;;;;;;;18.97;60.26;101535.55;2353729;75;51508;-78
2022/09/23 00:08:45;;;;;;;;;;;;;;;18.97;60.29;101540.41;2329061;75;51332;-79
2022/09/23 00:11:46;;;;;;;;;;;;;;;18.95;60.41;101538.37;2356484;75;50746;-77
2022/09/23 00:14:48;;;;;;;;;;;;;;;18.92;60.51;101526.14;2328519;75;51423;-80
2022/09/23 00:17:50;;;;;;;;;;;;;;;18.95;60.34;101525.48;2351450;74;51320;-78
2022/09/23 00:20:52;;;;;;;;;;;;;;;18.92;60.49;101523.45;2314837;76;50288;-79
2022/09/23 00:23:53;;;;;;;;;;;;;;;18.95;60.28;101513.41;2315625;76;49978;-78
2022/09/23 00:26:55;;;;;;;;;;;;;;;18.93;60.36;101515.77;2289773;76;50066;-79
2022/09/23 00:29:57;;;;;;;;;;;;;;;18.91;60.51;101520.95;2316220;76;50655;-79
2022/09/23 00:32:59;;;;;;;;;;;;;;;18.92;60.46;101509.22;2315638;76;50842;-78
2022/09/23 00:36:01;;;;;;;;;;;;;;;18.90;60.39;101510.70;2314026;76;51657;-77
2022/09/23 00:39:03;;;;;;;;;;;;;;;18.94;60.25;101508.55;2313791;76;50956;-79
2022/09/23 00:42:04;;;;;;;;;;;;;;;18.92;60.27;101503.84;2316096;76;50297;-78
2022/09/23 00:45:08;;;;;;;;;;;;;;;18.92;60.31;101503.34;2322986;75;50201;-79
2022/09/23 00:48:12;;;;;;;;;;;;;;;18.93;60.26;101501.02;2356533;74;51585;-79
2022/09/23 00:51:16;;;;;;;;;;;;;;;18.93;60.21;101497.00;2378047;73;49701;-77
2022/09/23 00:54:18;;;;;;;;;;;;;;;18.91;60.31;101499.00;2406095;73;51535;-78
2022/09/23 00:57:19;;;;;;;;;;;;;;;18.90;60.31;101498.64;2406931;74;52286;-78
2022/09/23 01:00:21;;;;;;;;;;;;;;;18.91;60.22;101492.80;2405960;74;51423;-79
2022/09/23 01:03:23;;;;;;;;;;;;;;;18.88;60.30;101495.30;2383256;74;50915;-79
2022/09/23 01:06:25;;;;;;;;;;;;;;;18.89;60.33;101488.92;2381990;74;51558;-79
2022/09/23 01:09:26;;;;;;;;;;;;;;;18.88;60.38;101483.72;2406956;73;51240;-78
2022/09/23 01:12:46;;;;;;;;;;;;;;;18.88;60.41;101483.72;2406772;74;51467;-77
2022/09/23 01:15:52;;;;;;;;;;;;;;;18.88;60.30;101482.38;2355684;74;49663;-78
2022/09/23 01:19:05;;;;;;;;;;;;;;;18.88;60.32;101478.35;2321146;74;50373;-78
2022/09/23 01:22:08;;;;;;;;;;;;;;;18.89;60.07;101474.17;2315557;76;50449;-79
2022/09/23 01:25:20;;;;;;;;;;;;;;;18.88;60.32;101469.83;2314183;76;50812;-78
2022/09/23 01:28:26;;;;;;;;;;;;;;;18.86;60.27;101471.00;2288940;76;49564;-78
2022/09/23 01:31:33;;;;;;;;;;;;;;;18.86;60.29;101474.52;2314419;76;51670;-78
2022/09/23 01:34:39;;;;;;;;;;;;;;;18.85;60.32;101463.94;2314302;76;50463;-78
2022/09/23 01:37:43;;;;;;;;;;;;;;;18.85;60.40;101470.64;2314871;76;51580;-78
2022/09/23 01:40:49;;;;;;;;;;;;;;;18.83;60.38;101472.64;2291333;76;49623;-78
2022/09/23 01:43:58;;;;;;;;;;;;;;;18.85;60.28;101471.48;2288721;76;49647;-78
2022/09/23 01:47:01;;;;;;;;;;;;;;;18.83;60.38;101469.48;2333726;74;51536;-77
2022/09/23 01:53:48;;;;;;;;;;;;;;;18.87;60.09;101464.11;2407037;74;22384;-78
2022/09/23 01:56:55;;;;;;;;;;;;;;;18.86;60.13;101466.98;2406813;74;50896;-79
2022/09/23 01:59:58;;;;;;;;;;;;;;;18.85;60.18;101460.75;2405792;73;52047;-78
2022/09/23 02:03:03;;;;;;;;;;;;;;;18.84;60.20;101456.91;2376840;74;51519;-78
2022/09/23 02:06:06;;;;;;;;;;;;;;;18.83;60.26;101459.23;2353604;75;22678;-79
2022/09/23 02:09:08;;;;;;;;;;;;;;;18.84;60.12;101459.09;2354294;75;51382;-78
2022/09/23 02:12:11;;;;;;;;;;;;;;;18.84;60.14;101455.06;2356801;75;50680;-78
2022/09/23 02:15:14;;;;;;;;;;;;;;;18.84;60.20;101452.89;2355253;75;50800;-78
2022/09/23 02:18:16;;;;;;;;;;;;;;;18.81;60.21;101445.19;2325110;75;50146;-78
2022/09/23 02:21:18;;;;;;;;;;;;;;;18.81;60.21;101445.19;2332436;76;51559;-78
2022/09/23 02:24:20;;;;;;;;;;;;;;;18.82;60.10;101443.66;2336536;75;52166;-79
2022/09/23 02:27:38;;;;;;;;;;;;;;;18.82;60.16;101443.66;2355078;75;50738;-79
2022/09/23 02:30:41;;;;;;;;;;;;;;;18.81;60.16;101435.80;2321901;74;51406;-76
2022/09/23 02:33:45;;;;;;;;;;;;;;;18.81;60.13;101433.12;2347357;75;51110;-78
2022/09/23 02:36:51;;;;;;;;;;;;;;;18.81;60.07;101426.41;2354023;75;52221;-78
2022/09/23 02:40:10;;;;;;;;;;;;;;;18.81;60.03;101424.56;2327376;74;51780;-77
2022/09/23 02:43:20;;;;;;;;;;;;;;;18.80;60.20;101424.72;2331021;75;49703;-79
2022/09/23 02:46:21;;;;;;;;;;;;;;;18.79;60.18;101417.69;2343802;74;50794;-78
2022/09/23 02:49:24;;;;;;;;;;;;;;;18.80;60.07;101420.19;2307352;75;51515;-78
2022/09/23 02:52:26;;;;;;;;;;;;;;;18.81;59.88;101417.03;2295261;77;50299;-77
2022/09/23 02:55:32;;;;;;;;;;;;;;;18.81;60.02;101411.16;2272127;77;49604;-78
2022/09/23 02:58:33;;;;;;;;;;;;;;;18.80;59.97;101403.27;2295818;76;51559;-78
2022/09/23 03:01:55;;;;;;;;;;;;;;;18.80;60.02;101406.78;2295370;76;51517;-78
2022/09/23 03:05:17;;;;;;;;;;;;;;;18.79;59.95;101405.12;2295216;77;51580;-79
2022/09/23 03:08:20;;;;;;;;;;;;;;;18.81;59.87;101407.64;2273120;77;49679;-78
2022/09/23 03:11:23;;;;;;;;;;;;;;;18.80;59.75;101404.10;2294666;76;50353;-79
2022/09/23 03:14:32;;;;;;;;;;;;;;;18.79;59.95;101396.24;2278692;75;51460;-79
2022/09/23 03:17:41;;;;;;;;;;;;;;;18.79;59.87;101394.91;2315020;75;50226;-79
2022/09/23 03:20:49;;;;;;;;;;;;;;;18.79;59.76;101393.56;2329588;75;50877;-79
2022/09/23 03:23:51;;;;;;;;;;;;;;;18.79;59.67;101387.69;2353414;75;50921;-79
2022/09/23 03:26:53;;;;;;;;;;;;;;;18.79;59.81;101386.35;2354920;75;50342;-79
2022/09/23 03:29:54;;;;;;;;;;;;;;;18.79;59.77;101379.64;2355074;75;50733;-78
2022/09/23 03:32:56;;;;;;;;;;;;;;;18.81;59.53;101376.30;2328450;75;50965;-78
2022/09/23 03:39:23;;;;;;;;;;;;;;;18.79;59.58;101380.98;2355604;75;24519;-79
2022/09/23 03:42:25;;;;;;;;;;;;;;;18.78;59.62;101375.30;2354035;75;51676;-80
2022/09/23 03:45:29;;;;;;;;;;;;;;;18.80;59.55;101369.25;2306152;76;51122;-79
2022/09/23 03:48:31;;;;;;;;;;;;;;;18.80;59.49;101365.73;2328651;75;51581;-79
2022/09/23 03:51:32;;;;;;;;;;;;;;;18.78;59.53;101365.92;2354390;75;51445;-79
2022/09/23 03:54:34;;;;;;;;;;;;;;;18.77;59.60;101368.25;2354513;75;51447;-77
2022/09/23 03:57:36;;;;;;;;;;;;;;;18.77;59.47;101366.07;2329887;75;50105;-79
2022/09/23 04:00:38;;;;;;;;;;;;;;;18.77;59.58;101364.22;2356040;75;50698;-79
2022/09/23 04:03:40;;;;;;;;;;;;;;;18.78;59.58;101367.26;2329302;75;50989;-79
2022/09/23 04:06:41;;;;;;;;;;;;;;;18.76;59.55;101367.09;2353769;75;50967;-79
2022/09/23 04:09:43;;;;;;;;;;;;;;;18.76;59.51;101361.73;2330068;75;49636;-77
2022/09/23 04:12:45;;;;;;;;;;;;;;;18.76;59.40;101366.58;2330357;75;50997;-79
2022/09/23 04:15:48;;;;;;;;;;;;;;;18.77;59.41;101356.69;2354923;75;50437;-80
2022/09/23 04:18:49;;;;;;;;;;;;;;;18.78;59.40;101356.53;2358545;74;50105;-79
2022/09/23 04:21:51;;;;;;;;;;;;;;;18.79;59.26;101348.81;2332933;76;50663;-80
2022/09/23 04:24:53;;;;;;;;;;;;;;;18.78;59.36;101349.83;2307438;76;51488;-80
2022/09/23 04:27:54;;;;;;;;;;;;;;;18.78;59.31;101350.31;2333052;76;50750;-79
2022/09/23 04:30:56;;;;;;;;;;;;;;;18.78;59.40;101344.47;2333593;76;50660;-78
2022/09/23 04:33:58;;;;;;;;;;;;;;;18.80;59.22;101355.01;2308097;76;49337;-78
2022/09/23 04:36:59;;;;;;;;;;;;;;;18.82;59.21;101349.81;2307686;76;52128;-78
2022/09/23 04:40:02;;;;;;;;;;;;;;;18.83;59.20;101348.83;2308085;76;50766;-78
2022/09/23 04:43:03;;;;;;;;;;;;;;;18.81;59.41;101338.77;2307603;76;51585;-78
2022/09/23 04:46:05;;;;;;;;;;;;;;;18.83;59.49;101343.46;2331836;74;51525;-78
2022/09/23 04:49:06;;;;;;;;;;;;;;;18.84;59.67;101341.11;2344652;75;50778;-77
2022/09/23 04:52:08;;;;;;;;;;;;;;;18.83;59.51;101339.44;2354709;75;51722;-78
2022/09/23 04:55:10;;;;;;;;;;;;;;;18.84;59.72;101341.11;2329914;75;51445;-77
2022/09/23 04:58:11;;;;;;;;;;;;;;;18.84;59.61;101336.25;2303195;75;51066;-77
2022/09/23 05:01:17;;;;;;;;;;;;;;;18.82;59.60;101343.11;2328766;75;50406;-79
2022/09/23 05:04:19;;;;;;;;;;;;;;;18.84;59.58;101341.11;2355619;75;50687;-78
2022/09/23 05:07:20;;;;;;;;;;;;;;;18.85;59.63;101340.09;2354799;75;51531;-77
2022/09/23 05:10:22;;;;;;;;;;;;;;;18.87;59.59;101346.64;2329550;75;51011;-77
2022/09/23 05:13:24;;;;;;;;;;;;;;;18.84;59.59;101338.42;2328348;75;50510;-77
2022/09/23 05:16:26;;;;;;;;;;;;;;;18.83;59.67;101335.42;2355456;74;50425;-78
2022/09/23 05:19:27;;;;;;;;;;;;;;;18.85;59.75;101336.58;2344955;74;51413;-78
2022/09/23 05:22:29;;;;;;;;;;;;;;;18.83;59.86;101337.23;2308284;76;49558;-79
2022/09/23 05:25:31;;;;;;;;;;;;;;;18.83;60.36;101342.13;2332599;76;50684;-80
2022/09/23 05:28:32;;;;;;;;;;;;;;;18.83;60.52;101339.92;2332335;76;52427;-78
2022/09/23 05:31:35;;;;;;;;;;;;;;;18.84;60.26;101333.57;2332666;76;50780;-79
2022/09/23 05:34:37;;;;;;;;;;;;;;;18.85;60.09;101337.41;2307872;76;52767;-79
2022/09/23 05:37:39;;;;;;;;;;;;;;;18.85;60.09;101328.53;2307942;76;52627;-78
2022/09/23 05:40:40;;;;;;;;;;;;;;;18.82;60.36;101332.38;2307904;76;51542;-80
2022/09/23 05:43:42;;;;;;;;;;;;;;;18.83;60.38;101335.42;2331469;76;51501;-80
2022/09/23 05:46:43;;;;;;;;;;;;;;;18.83;60.44;101330.06;2303121;76;49529;-80
2022/09/23 05:49:45;;;;;;;;;;;;;;;18.84;60.23;101341.11;2318996;75;50319;-80
2022/09/23 05:52:47;;;;;;;;;;;;;;;18.85;60.12;101342.77;2332266;76;50362;-79
2022/09/23 05:55:48;;;;;;;;;;;;;;;18.82;60.91;101335.06;2320065;76;50523;-81
2022/09/23 05:58:50;;;;;;;;;;;;;;;18.85;60.44;101334.72;2320713;76;50841;-78
2022/09/23 06:01:52;;;;;;;;;;;;;;;18.92;60.37;101335.73;2331962;75;50312;-79
2022/09/23 06:04:53;;;;;;;;;;;;;;;18.94;60.79;101334.23;2320735;76;50416;-78
2022/09/23 06:07:55;;;;;;;;;;;;;;;18.99;60.55;101340.44;2331929;76;50386;-78
2022/09/23 06:10:57;;;;;;;;;;;;;;;19.05;60.32;101343.27;2331895;76;51554;-78
2022/09/23 06:13:59;;;;;;;;;;;;;;;19.12;59.95;101331.38;2326923;75;50288;-77
2022/09/23 06:17:01;;;;;;;;;;;;;;;19.16;59.92;101336.71;2343659;74;50696;-77
2022/09/23 06:20:03;;;;;;;;;;;;;;;19.18;59.83;101341.41;2382247;74;51436;-78
2022/09/23 06:23:08;;;;;;;;;;;;;;;19.21;59.72;101341.57;2354729;74;51065;-78
2022/09/23 06:26:10;;;;;;;;;;;;;;;19.22;59.70;101338.73;2382102;74;51472;-77
2022/09/23 06:29:13;;;;;;;;;;;;;;;19.24;59.67;101338.55;2404828;74;50678;-78
2022/09/23 06:32:15;;;;;;;;;;;;;;;19.22;59.69;101337.39;2314831;76;50273;-78
2022/09/23 06:35:18;;;;;;;;;;;;;;;19.25;59.67;101340.23;2307263;76;52536;-78
2022/09/23 06:38:20;;;;;;;;;;;;;;;19.21;59.93;101339.72;2313064;76;50669;-78
2022/09/23 06:41:22;;;;;;;;;;;;;;;19.18;59.89;101341.41;2302661;75;50340;-79
2022/09/23 06:44:23;;;;;;;;;;;;;;;19.20;59.74;101335.37;2307070;75;50611;-78
2022/09/23 06:47:25;;;;;;;;;;;;;;;19.21;59.67;101346.42;2307229;76;52531;-78
2022/09/23 06:50:27;;;;;;;;;;;;;;;19.24;59.58;101343.43;2324603;75;51490;-78
2022/09/23 06:53:31;;;;;;;;;;;;;;;19.28;59.44;101339.89;2329541;75;50442;-78
2022/09/23 06:56:33;;;;;;;;;;;;;;;19.28;59.38;101339.38;2356345;75;50438;-78
2022/09/23 06:59:34;;;;;;;;;;;;;;;19.28;59.27;101340.72;2328925;75;49974;-78
2022/09/23 07:02:36;;;;;;;;;;;;;;;19.31;59.11;101342.23;2356575;75;51432;-78
2022/09/23 07:05:38;;;;;;;;;;;;;;;19.36;59.02;101347.41;2354825;75;51478;-78
2022/09/23 07:08:41;;;;;;;;;;;;;;;19.38;58.92;101351.27;2328214;75;51481;-78
2022/09/23 07:11:42;;;;;;;;;;;;;;;19.40;58.76;101347.09;2321331;76;52543;-77
2022/09/23 07:14:44;;;;;;;;;;;;;;;19.42;58.74;101349.94;2320386;76;50590;-78
2022/09/23 07:17:46;;;;;;;;;;;;;;;19.42;58.66;101345.05;2312614;75;51479;-78
2022/09/23 07:20:48;;;;;;;;;;;;;;;19.42;58.59;101346.39;2320377;75;51549;-78
2022/09/23 07:23:50;;;;;;;;;;;;;;;19.41;58.54;101350.09;2319423;76;50958;-78
2022/09/23 07:26:52;;;;;;;;;;;;;;;19.42;58.45;101350.41;2319858;76;51471;-77
2022/09/23 07:29:53;;;;;;;;;;;;;;;19.40;58.41;101351.11;2347059;74;50206;-78
2022/09/23 07:32:55;;;;;;;;;;;;;;;19.41;58.35;101344.73;2382384;74;50097;-78
2022/09/23 07:35:57;;;;;;;;;;;;;;;19.43;58.33;101348.08;2354394;74;49633;-78
2022/09/23 07:39:02;;;;;;;;;;;;;;;19.43;58.23;101356.13;2382102;74;50367;-78
2022/09/23 07:42:04;;;;;;;;;;;;;;;19.42;58.22;101352.62;2406940;74;51418;-78
2022/09/23 07:45:06;;;;;;;;;;;;;;;19.44;58.13;101352.43;2378229;74;50694;-78
2022/09/23 07:48:08;;;;;;;;;;;;;;;19.43;58.14;101348.08;2305927;74;50941;-78
2022/09/23 07:51:10;;;;;;;;;;;;;;;19.41;58.09;101351.44;2371418;74;52270;-78
2022/09/23 07:54:13;;;;;;;;;;;;;;;19.39;58.12;101348.08;2350944;74;50767;-78
2022/09/23 07:57:14;;;;;;;;;;;;;;;19.40;58.06;101348.43;2318306;75;50405;-78
2022/09/23 08:00:16;;;;;;;;;;;;;;;19.39;58.12;101352.11;2289599;76;50083;-78
2022/09/23 08:03:18;;;;;;;;;;;;;;;19.36;58.12;101350.09;2287900;76;51513;-78
2022/09/23 08:06:19;;;;;;;;;;;;;;;19.37;58.10;101346.92;2313714;76;51503;-78
2022/09/23 08:09:23;;;;;;;;;;;;;;;19.35;58.08;101346.25;2336225;74;50382;-77
2022/09/23 08:12:24;;;;;;;;;;;;;;;19.33;58.14;101344.24;2372781;74;51596;-79
2022/09/23 08:15:27;;;;;;;;;;;;;;;19.32;58.14;101346.09;2382966;74;51837;-78
2022/09/23 08:18:28;;;;;;;;;;;;;;;19.31;58.14;101344.40;2371064;74;50456;-79
2022/09/23 08:21:30;;;;;;;;;;;;;;;19.30;58.09;101341.39;2355715;75;50761;-78
2022/09/23 08:24:31;;;;;;;;;;;;;;;19.32;58.03;101342.58;2320423;75;51527;-79
2022/09/23 08:27:33;;;;;;;;;;;;;;;19.33;57.98;101341.55;2336524;74;51971;-79
2022/09/23 08:30:34;;;;;;;;;;;;;;;19.33;58.02;101340.22;2380010;74;51466;-79
2022/09/23 08:33:36;;;;;;;;;;;;;;;19.30;58.10;101338.71;2406982;74;51462;-79
2022/09/23 08:36:38;;;;;;;;;;;;;;;19.35;57.93;101340.89;2381529;74;50463;-79
2022/09/23 08:39:39;;;;;;;;;;;;;;;19.36;57.89;101344.72;2407429;74;50372;-79
2022/09/23 08:42:41;;;;;;;;;;;;;;;19.36;57.76;101338.02;2382428;74;50486;-79
2022/09/23 08:45:43;;;;;;;;;;;;;;;19.36;57.73;101331.30;2407224;74;50452;-79
2022/09/23 08:48:45;;;;;;;;;;;;;;;19.36;57.68;101335.33;2407416;74;50360;-79
2022/09/23 08:51:47;;;;;;;;;;;;;;;19.32;57.74;101323.28;2382984;74;51430;-79
2022/09/23 08:54:48;;;;;;;;;;;;;;;19.30;57.72;101323.95;2360376;75;51487;-79
2022/09/23 08:57:52;;;;;;;;;;;;;;;19.30;57.71;101316.41;2310605;75;51481;-79
2022/09/23 09:00:55;;;;;;;;;;;;;;;19.27;57.74;101320.28;2314983;76;51501;-79
2022/09/23 09:04:00;;;;;;;;;;;;;;;19.28;57.72;101322.45;2291349;76;50939;-80
2022/09/23 09:07:09;;;;;;;;;;;;;;;19.28;57.73;101311.72;2315875;76;51601;-79
2022/09/23 09:10:24;;;;;;;;;;;;;;;19.26;57.70;101315.90;2315104;76;51512;-80
2022/09/23 09:13:31;;;;;;;;;;;;;;;19.23;57.75;101314.91;2316063;76;51447;-80
2022/09/23 09:16:41;;;;;;;;;;;;;;;19.23;57.79;101312.73;2289509;76;49294;-79
2022/09/23 09:19:50;;;;;;;;;;;;;;;19.19;57.86;101311.39;2314174;76;23509;-79
2022/09/23 09:22:52;;;;;;;;;;;;;;;19.17;57.89;101311.58;2316830;76;22319;-79
2022/09/23 09:25:54;;;;;;;;;;;;;;;19.13;58.03;101316.42;2362138;74;51513;-79
2022/09/23 09:29:07;;;;;;;;;;;;;;;19.15;57.98;101310.91;2383951;74;50064;-78
2022/09/23 09:32:16;;;;;;;;;;;;;;;19.17;58.01;101312.92;2407240;74;50794;-79
2022/09/23 09:35:25;;;;;;;;;;;;;;;19.22;57.88;101305.20;2406843;74;50952;-79
2022/09/23 09:38:26;;;;;;;;;;;;;;;;;;2407440;74;51477;-80
2022/09/23 09:41:30;;;;;;;;;;;;;;;19.23;57.78;101306.86;2406951;74;50491;-80
2022/09/23 09:44:34;;;;;;;;;;;;;;;19.25;57.76;101298.14;2382233;74;22321;-80
2022/09/23 09:47:41;;;;;;;;;;;;;;;19.26;57.69;101286.38;2407709;74;51447;-81
2022/09/23 09:50:44;;;;;;;;;;;;;;;19.25;57.66;101284.72;2407557;74;50497;-79
2022/09/23 09:53:45;;;;;;;;;;;;;;;19.24;57.68;101283.06;2402148;74;51469;-79
2022/09/23 09:56:47;;;;;;;;;;;;;;;19.26;57.67;101278.34;2320473;74;50816;-80
2022/09/23 09:59:48;;;;;;;;;;;;;;;19.27;57.56;101273.83;2328904;76;51196;-80
2022/09/23 10:02:53;;;;;;;;;;;;;;;19.25;57.63;101265.94;2307316;76;50656;-79
2022/09/23 10:05:56;;;;;;;;;;;;;;;19.27;57.58;101265.27;2329211;76;51496;-79
2022/09/23 10:09:00;;;;;;;;;;;;;;;19.25;57.64;101263.27;2281717;76;50231;-79
2022/09/23 10:12:03;;;;;;;;;;;;;;;19.25;57.64;101256.55;2329450;75;50217;-79
2022/09/23 10:15:07;;;;;;;;;;;;;;;19.25;57.67;101251.70;2327174;75;51354;-79
2022/09/23 10:18:12;;;;;;;;;;;;;;;19.25;57.65;101254.37;2328766;75;51464;-79
2022/09/23 10:21:14;;;;;;;;;;;;;;;19.24;57.62;101256.71;2322647;76;51533;-79
2022/09/23 10:24:18;;;;;;;;;;;;;;;19.24;57.60;101261.59;2313069;75;50241;-79
2022/09/23 10:27:26;;;;;;;;;;;;;;;19.24;57.57;101253.55;2359634;74;50815;-79
2022/09/23 10:30:28;;;;;;;;;;;;;;;19.23;57.61;101242.98;2329195;76;51479;-78
2022/09/23 10:33:30;;;;;;;;;;;;;;;19.23;57.60;101245.15;2306926;76;50894;-79
2022/09/23 10:36:32;;;;;;;;;;;;;;;19.23;57.60;101253.20;2329039;76;50467;-79
2022/09/23 10:49:48;;;;;;;;;;;;;;;19.20;57.63;101238.80;2329596;75;22300;-79
2022/09/23 10:52:54;;;;;;;;;;;;;;;19.22;57.61;101242.15;2329518;76;22486;-81
2022/09/23 10:56:06;;;;;;;;;;;;;;;19.22;57.60;101239.97;2348014;75;50831;-80
2022/09/23 10:59:29;;;;;;;;;;;;;;;19.22;57.56;101234.10;2328643;75;50095;-81
2022/09/23 11:02:48;;;;;;;;;;;;;;;19.24;57.48;101229.41;2354101;75;51545;-80
2022/09/23 11:05:51;;;;;;;;;;;;;;;19.24;57.48;101232.09;2354218;75;51364;-81
2022/09/23 11:09:11;;;;;;;;;;;;;;;19.23;57.48;101226.87;2355249;75;50710;-80
2022/09/23 11:12:30;;;;;;;;;;;;;;;19.21;57.54;101221.67;2329644;75;49637;-80
2022/09/23 11:15:37;;;;;;;;;;;;;;;19.22;57.53;101228.73;2353328;75;51211;-80
2022/09/23 11:18:44;;;;;;;;;;;;;;;19.21;57.53;101224.36;2356111;75;50762;-80
2022/09/23 11:21:50;;;;;;;;;;;;;;;19.22;57.50;101216.66;2356105;75;50726;-80
2022/09/23 11:25:00;;;;;;;;;;;;;;;19.22;57.51;101208.61;2327708;75;49750;-80
2022/09/23 11:28:16;;;;;;;;;;;;;;;19.21;57.53;101206.92;2321118;76;51221;-80
2022/09/23 11:31:23;;;;;;;;;;;;;;;19.23;57.49;101205.42;2332109;76;51194;-80
2022/09/23 11:34:38;;;;;;;;;;;;;;;19.23;57.51;101198.20;2331945;76;51309;-80
2022/09/23 11:37:40;;;;;;;;;;;;;;;19.22;57.48;101192.52;2332395;76;50547;-80
2022/09/23 11:40:42;;;;;;;;;;;;;;;19.22;57.44;101184.47;2332173;76;51670;-80
2022/09/23 11:43:44;;;;;;;;;;;;;;;19.24;57.41;101180.25;2332101;76;50394;-80
2022/09/23 11:47:00;;;;;;;;;;;;;;;19.22;57.43;101181.78;2332108;76;51467;-81
2022/09/23 11:50:02;;;;;;;;;;;;;;;19.23;57.38;101172.71;2331896;75;51615;-80
2022/09/23 11:53:06;;;;;;;;;;;;;;;19.24;57.39;101169.52;2332128;76;50321;-80
2022/09/23 11:56:28;;;;;;;;;;;;;;;19.22;57.42;101165.69;2350846;74;51466;-80
2022/09/23 11:59:40;;;;;;;;;;;;;;;19.23;57.39;101163.84;2329311;76;51542;-80
2022/09/23 12:02:50;;;;;;;;;;;;;;;19.20;57.45;101160.99;2329380;76;51708;-80
2022/09/23 12:06:01;;;;;;;;;;;;;;;19.23;57.38;101153.93;2333044;75;50572;-80
2022/09/23 12:09:03;;;;;;;;;;;;;;;19.22;57.39;101150.93;2315267;76;50240;-80
2022/09/23 12:12:21;;;;;;;;;;;;;;;19.24;57.38;101146.71;2327254;75;50670;-81
2022/09/23 12:15:28;;;;;;;;;;;;;;;19.23;57.40;101148.56;2329812;74;51254;-82
2022/09/23 12:18:34;;;;;;;;;;;;;;;19.21;57.51;101145.73;2354744;74;51598;-81
2022/09/23 12:21:42;;;;;;;;;;;;;;;19.24;57.51;101144.89;2355038;74;22476;-81
2022/09/23 12:24:47;;;;;;;;;;;;;;;19.24;57.56;101142.21;2344459;75;50704;-80
2022/09/23 12:27:49;;;;;;;;;;;;;;;19.23;57.54;101137.84;2295638;76;49655;-81
2022/09/23 12:30:51;;;;;;;;;;;;;;;19.20;57.69;101138.70;2324730;75;51485;-81
2022/09/23 12:33:53;;;;;;;;;;;;;;;19.18;57.77;101121.94;2354546;75;50373;-81
2022/09/23 12:36:56;;;;;;;;;;;;;;;19.19;57.75;101127.63;2354644;74;51554;-81
2022/09/23 12:39:58;;;;;;;;;;;;;;;19.19;57.74;101125.80;2328711;75;50143;-81
2022/09/23 12:43:00;;;;;;;;;;;;;;;19.21;57.71;101122.41;2343036;75;50450;-81
2022/09/23 12:46:18;;;;;;;;;;;;;;;19.19;57.72;101109.70;2354815;74;51585;-81
2022/09/23 12:49:31;;;;;;;;;;;;;;;19.23;57.64;101112.34;2328851;75;51545;-81
2022/09/23 12:52:33;;;;;;;;;;;;;;;19.23;57.69;101111.00;2330334;75;51198;-81
2022/09/23 12:55:36;;;;;;;;;;;;;;;19.24;57.64;101111.36;2342250;75;51179;-81
2022/09/23 12:58:40;;;;;;;;;;;;;;;19.25;57.64;101108.98;2302531;75;50314;-81
2022/09/23 13:01:41;;;;;;;;;;;;;;;19.25;57.67;101114.36;2295914;76;50098;-81
2022/09/23 13:08:14;;;;;;;;;;;;;;;19.26;57.63;101100.42;2276213;77;22477;-80
2022/09/23 13:11:20;;;;;;;;;;;;;;;19.27;57.65;101097.58;2286955;76;50934;-81
2022/09/23 13:14:22;;;;;;;;;;;;;;;19.27;57.67;101092.73;2312440;76;51552;-81
2022/09/23 13:17:31;;;;;;;;;;;;;;;19.27;57.63;101085.51;2289236;76;49926;-81
2022/09/23 13:20:37;;;;;;;;;;;;;;;19.24;57.74;101076.48;2288907;76;50565;-81
2022/09/23 13:23:37;;;;;;;;;;;;;;;19.23;57.74;101078.81;2312620;76;22361;-81
2022/09/23 13:26:40;;;;;;;;;;;;;;;19.23;57.73;101072.11;2322415;75;50285;-81
2022/09/23 13:29:53;;;;;;;;;;;;;;;19.24;57.72;101079.16;2288137;76;49620;-81
2022/09/23 13:33:12;;;;;;;;;;;;;;;19.24;57.73;101078.30;2317094;76;50525;-81
2022/09/23 13:36:17;;;;;;;;;;;;;;;19.23;57.73;101069.42;2310962;76;52491;-81
2022/09/23 13:39:23;;;;;;;;;;;;;;;19.26;57.70;101065.55;2292289;77;51462;-80
2022/09/23 13:42:26;;;;;;;;;;;;;;;19.27;57.67;101062.70;2281862;77;49598;-81
2022/09/23 13:45:29;;;;;;;;;;;;;;;19.28;57.73;101054.14;2290290;77;50755;-81
2022/09/23 13:48:31;;;;;;;;;;;;;;;19.28;57.69;101055.48;2291492;76;50772;-81
2022/09/23 13:51:33;;;;;;;;;;;;;;;19.29;57.80;101047.75;2291330;77;51494;-81
2022/09/23 13:54:35;;;;;;;;;;;;;;;19.28;57.86;101040.21;2296010;75;50088;-81
2022/09/23 13:57:37;;;;;;;;;;;;;;;19.28;57.89;101030.83;2346398;74;52173;-81
2022/09/23 14:00:38;;;;;;;;;;;;;;;19.29;58.00;101024.95;2407423;74;51562;-81
2022/09/23 14:03:40;;;;;;;;;;;;;;;19.29;58.08;101019.58;2407480;74;50995;-81
2022/09/23 14:06:41;;;;;;;;;;;;;;;19.28;58.13;101026.80;2384192;74;50096;-80
2022/09/23 14:09:44;;;;;;;;;;;;;;;19.27;58.22;101015.75;2407887;74;51497;-80
2022/09/23 14:12:46;;;;;;;;;;;;;;;19.30;58.13;101021.27;2407236;74;50683;-79
2022/09/23 14:15:47;;;;;;;;;;;;;;;19.28;58.22;101024.11;2407402;74;50809;-80
2022/09/23 14:18:49;;;;;;;;;;;;;;;19.27;58.14;101009.05;2293268;75;50163;-80
2022/09/23 14:21:52;;;;;;;;;;;;;;;19.28;58.14;101009.87;2315017;76;51548;-80
2022/09/23 14:24:54;;;;;;;;;;;;;;;19.28;58.11;101008.53;2323801;75;51031;-80
2022/09/23 14:27:55;;;;;;;;;;;;;;;19.29;58.11;101008.36;2308871;76;51443;-79
2022/09/23 14:30:57;;;;;;;;;;;;;;;19.30;58.13;101006.00;2290862;76;50952;-79
2022/09/23 14:33:59;;;;;;;;;;;;;;;19.30;58.15;100995.27;2314940;76;51446;-80
2022/09/23 14:40:23;;;;;;;;;;;;;;;19.30;58.24;100992.58;2321713;75;23055;-80
2022/09/23 14:43:25;;;;;;;;;;;;;;;19.32;58.26;100989.22;2317296;76;51470;-80
2022/09/23 14:46:28;;;;;;;;;;;;;;;19.32;58.21;100987.88;2314531;76;52276;-80
2022/09/23 14:49:29;;;;;;;;;;;;;;;19.31;58.32;100980.83;2301507;75;50391;-80
2022/09/23 14:52:31;;;;;;;;;;;;;;;19.33;58.28;100991.39;2272425;77;50412;-80
2022/09/23 14:55:33;;;;;;;;;;;;;;;19.31;58.32;100988.05;2342648;74;50636;-80
2022/09/23 14:58:48;;;;;;;;;;;;;;;19.31;58.39;100979.48;2316798;76;51505;-79
2022/09/23 15:01:49;;;;;;;;;;;;;;;19.32;58.39;100976.31;2315792;76;50862;-80
2022/09/23 15:04:51;;;;;;;;;;;;;;;19.30;58.39;100979.17;2315355;76;51419;-80
2022/09/23 15:07:53;;;;;;;;;;;;;;;19.30;58.44;100973.80;2319662;76;50052;-80
2022/09/23 15:10:56;;;;;;;;;;;;;;;19.25;58.72;100980.21;2329864;74;49804;-79
2022/09/23 15:13:57;;;;;;;;;;;;;;;19.24;58.71;100981.23;2407129;74;51481;-79
2022/09/23 15:16:59;;;;;;;;;;;;;;;19.26;58.96;100980.53;2366911;74;50274;-78
2022/09/23 15:20:02;;;;;;;;;;;;;;;19.25;59.21;100977.53;2290003;76;49609;-78
2022/09/23 15:23:04;;;;;;;;;;;;;;;19.22;59.61;100979.23;2312430;76;50220;-78
2022/09/23 15:26:05;;;;;;;;;;;;;;;19.26;59.60;100970.31;2353703;74;50719;-77
2022/09/23 15:29:10;;;;;;;;;;;;;;;19.24;60.04;100967.82;2348533;74;50259;-77
2022/09/23 15:32:12;;;;;;;;;;;;;;;19.26;60.29;100960.92;2252752;76;51361;-78
2022/09/23 15:35:15;;;;;;;;;;;;;;;19.26;60.21;100967.11;2315242;76;50819;-77
2022/09/23 15:38:16;;;;;;;;;;;;;;;19.26;59.88;100960.41;2315063;75;50448;-78
2022/09/23 15:41:18;;;;;;;;;;;;;;;19.23;60.25;100960.77;2315219;76;50721;-78
2022/09/23 15:44:20;;;;;;;;;;;;;;;19.22;60.32;100959.11;2289496;76;50967;-78
2022/09/23 15:47:22;;;;;;;;;;;;;;;19.21;60.54;100956.09;2290649;76;50499;-78
2022/09/23 15:50:23;;;;;;;;;;;;;;;19.23;60.52;100957.26;2315198;76;50820;-78
2022/09/23 15:53:26;;;;;;;;;;;;;;;19.22;60.76;100959.11;2289440;76;51425;-78
2022/09/23 15:56:27;;;;;;;;;;;;;;;19.24;60.99;100961.59;2277085;74;51012;-77
2022/09/23 15:59:29;;;;;;;;;;;;;;;19.22;61.11;100956.44;2310656;76;50389;-77
2022/09/23 16:02:32;;;;;;;;;;;;;;;19.24;60.62;100950.87;2313460;76;50797;-79
2022/09/23 16:05:36;;;;;;;;;;;;;;;19.22;60.76;100951.06;2311672;76;50702;-77
2022/09/23 16:08:39;;;;;;;;;;;;;;;19.18;60.68;100942.21;2263876;76;49565;-77
2022/09/23 16:11:45;;;;;;;;;;;;;;;19.16;60.60;100951.77;2288843;75;51619;-77